createdAt,value
2023-01-07T00:01:23.497Z,17.90
2023-01-07T00:03:52.233Z,18.23
2023-01-07T00:06:22.124Z,20.10
2023-01-07T00:08:51.689Z,18.37
2023-01-07T00:11:21.037Z,17.00
2023-01-07T00:13:50.437Z,17.03
2023-01-07T00:16:21.300Z,19.07
2023-01-07T00:18:48.532Z,19.93
2023-01-07T00:21:18.229Z,15.57
2023-01-07T00:23:47.331Z,14.93
2023-01-07T00:26:19.017Z,18.10
2023-01-07T00:28:48.621Z,19.37
2023-01-07T00:31:20.174Z,20.33
2023-01-07T00:34:08.881Z,20.47
2023-01-07T00:36:41.695Z,18.50
2023-01-07T00:39:14.365Z,22.40
2023-01-07T00:42:02.356Z,18.53
2023-01-07T00:44:29.662Z,19.83
2023-01-07T00:46:58.724Z,19.17
2023-01-07T00:49:26.065Z,18.53
2023-01-07T00:51:53.018Z,19.90
2023-01-07T00:54:19.923Z,19.70
2023-01-07T00:56:46.789Z,20.13
2023-01-07T00:59:13.774Z,20.63
2023-01-07T01:01:40.834Z,21.80
2023-01-07T01:04:09.206Z,23.60
2023-01-07T01:06:36.102Z,22.80
2023-01-07T01:09:03.081Z,23.73
2023-01-07T01:11:30.011Z,24.30
2023-01-07T01:13:56.973Z,22.53
2023-01-07T01:16:23.928Z,24.37
2023-01-07T01:18:50.912Z,22.87
2023-01-07T01:21:19.303Z,22.63
2023-01-07T01:23:46.561Z,21.97
2023-01-07T01:26:16.704Z,22.47
2023-01-07T01:28:44.958Z,22.90
2023-01-07T01:31:12.538Z,23.83
2023-01-07T01:33:39.574Z,24.70
2023-01-07T01:36:10.563Z,24.77
2023-01-07T01:38:39.462Z,24.23
2023-01-07T01:41:07.030Z,23.27
2023-01-07T01:43:36.693Z,24.17
2023-01-07T01:46:11.026Z,23.40
2023-01-07T01:48:45.827Z,24.73
2023-01-07T01:51:17.249Z,25.73
2023-01-07T01:53:45.875Z,23.27
2023-01-07T01:56:17.994Z,21.60
2023-01-07T01:58:51.580Z,23.40
2023-01-07T02:01:18.626Z,23.33
2023-01-07T02:03:47.620Z,23.30
2023-01-07T02:06:30.957Z,21.90
2023-01-07T02:08:59.238Z,23.07
2023-01-07T02:11:42.719Z,22.33
2023-01-07T02:14:35.729Z,23.33
2023-01-07T02:17:17.437Z,23.17
2023-01-07T02:20:37.791Z,22.80
2023-01-07T02:23:45.434Z,22.30
2023-01-07T02:26:46.071Z,22.73
2023-01-07T02:29:48.787Z,22.33
2023-01-07T02:32:36.952Z,22.60
2023-01-07T02:35:20.339Z,22.43
2023-01-07T02:38:01.267Z,21.53
2023-01-07T02:40:37.961Z,23.90
2023-01-07T02:43:16.780Z,21.97
2023-01-07T02:45:53.689Z,21.23
2023-01-07T02:48:24.572Z,20.23
2023-01-07T02:50:51.439Z,23.00
2023-01-07T02:53:20.934Z,23.73
2023-01-07T02:56:14.598Z,21.63
2023-01-07T02:59:08.847Z,22.43
2023-01-07T03:02:16.488Z,19.60
2023-01-07T03:05:21.236Z,19.43
2023-01-07T03:08:05.533Z,20.10
2023-01-07T03:10:42.448Z,21.27
2023-01-07T03:13:17.751Z,20.27
2023-01-07T03:15:51.289Z,19.60
2023-01-07T03:18:24.587Z,21.57
2023-01-07T03:20:59.023Z,19.07
2023-01-07T03:23:29.803Z,21.00
2023-01-07T03:26:03.050Z,20.37
2023-01-07T03:28:36.061Z,19.67
2023-01-07T03:31:07.781Z,19.67
2023-01-07T03:33:43.479Z,17.70
2023-01-07T03:36:16.569Z,19.13
2023-01-07T03:38:45.949Z,18.20
2023-01-07T03:41:32.807Z,18.57
2023-01-07T03:43:59.690Z,19.33
2023-01-07T03:46:27.073Z,19.00
2023-01-07T03:48:54.166Z,17.87
2023-01-07T03:51:22.355Z,19.40
2023-01-07T03:53:49.273Z,18.17
2023-01-07T03:56:16.241Z,19.13
2023-01-07T03:58:43.297Z,17.53
2023-01-07T04:01:10.261Z,17.40
2023-01-07T04:03:37.288Z,18.97
2023-01-07T04:06:04.402Z,17.47
2023-01-07T04:08:32.710Z,18.23
2023-01-07T04:10:59.570Z,18.60
2023-01-07T04:13:26.671Z,17.40
2023-01-07T04:15:53.602Z,16.93
2023-01-07T04:18:22.175Z,16.77
2023-01-07T04:20:49.449Z,16.57
2023-01-07T04:23:16.647Z,17.73
2023-01-07T04:25:46.539Z,16.87
2023-01-07T04:28:13.596Z,17.87
2023-01-07T04:30:40.909Z,18.20
2023-01-07T04:33:07.938Z,16.73
2023-01-07T04:35:34.813Z,17.17
2023-01-07T04:38:01.776Z,15.53
2023-01-07T04:40:28.707Z,17.93
2023-01-07T04:42:56.911Z,17.37
2023-01-07T04:45:23.963Z,16.30
2023-01-07T04:47:54.835Z,16.80
2023-01-07T04:50:21.940Z,17.40
2023-01-07T04:52:49.017Z,16.97
2023-01-07T04:55:16.398Z,17.90
2023-01-07T04:57:43.476Z,18.43
2023-01-07T05:00:13.217Z,17.57
2023-01-07T05:02:40.145Z,18.70
2023-01-07T05:05:08.231Z,16.90
2023-01-07T05:07:35.283Z,15.60
2023-01-07T05:10:02.457Z,16.93
2023-01-07T05:12:29.331Z,17.03
2023-01-07T05:14:56.227Z,16.80
2023-01-07T05:17:24.447Z,17.43
2023-01-07T05:19:51.294Z,17.17
2023-01-07T05:22:18.193Z,18.20
2023-01-07T05:24:45.215Z,15.07
2023-01-07T05:27:12.233Z,17.03
2023-01-07T05:29:39.145Z,17.30
2023-01-07T05:32:06.269Z,16.77
2023-01-07T05:34:34.489Z,15.90
2023-01-07T05:37:01.370Z,15.53
2023-01-07T05:39:28.266Z,17.73
2023-01-07T05:41:55.474Z,17.20
2023-01-07T05:44:22.423Z,16.57
2023-01-07T05:46:49.285Z,15.07
2023-01-07T05:49:17.180Z,17.10
2023-01-07T05:51:45.477Z,17.57
2023-01-07T05:54:12.410Z,16.43
2023-01-07T05:56:39.313Z,17.43
2023-01-07T05:59:08.729Z,16.50
2023-01-07T06:01:35.642Z,17.43
2023-01-07T06:04:02.543Z,14.73
2023-01-07T06:06:29.419Z,16.53
2023-01-07T06:08:57.676Z,16.43
2023-01-07T06:11:24.612Z,16.13
2023-01-07T06:13:51.567Z,15.57
2023-01-07T06:16:18.492Z,15.07
2023-01-07T06:18:45.450Z,17.27
2023-01-07T06:21:12.449Z,14.17
2023-01-07T06:23:39.675Z,15.47
2023-01-07T06:26:07.874Z,14.33
2023-01-07T06:28:34.819Z,15.70
2023-01-07T06:31:01.753Z,15.50
2023-01-07T06:33:28.642Z,15.23
2023-01-07T06:35:55.632Z,15.90
2023-01-07T06:38:22.582Z,13.63
2023-01-07T06:40:49.516Z,13.77
2023-01-07T06:43:17.741Z,15.43
2023-01-07T06:45:44.667Z,14.13
2023-01-07T06:48:11.542Z,13.77
2023-01-07T06:50:38.396Z,15.30
2023-01-07T06:53:06.705Z,15.73
2023-01-07T06:55:33.766Z,15.50
2023-01-07T06:58:00.689Z,13.83
2023-01-07T07:00:29.084Z,15.17
2023-01-07T07:02:56.134Z,13.63
2023-01-07T07:05:23.078Z,14.93
2023-01-07T07:07:49.953Z,13.63
2023-01-07T07:10:17.367Z,13.67
2023-01-07T07:12:44.539Z,14.50
2023-01-07T07:15:12.501Z,14.07
2023-01-07T07:17:40.759Z,14.47
2023-01-07T07:20:09.206Z,16.03
2023-01-07T07:22:36.172Z,15.00
2023-01-07T07:25:03.312Z,13.07
2023-01-07T07:27:30.184Z,14.20
2023-01-07T07:29:57.064Z,14.40
2023-01-07T07:32:28.430Z,13.30
2023-01-07T07:34:56.871Z,13.53
2023-01-07T07:37:25.387Z,14.77
2023-01-07T07:39:52.970Z,14.33
2023-01-07T07:42:19.838Z,13.57
2023-01-07T07:44:46.778Z,11.90
2023-01-07T07:47:13.706Z,13.63
2023-01-07T07:49:40.685Z,13.90
2023-01-07T07:52:08.953Z,14.20
2023-01-07T07:54:36.047Z,14.20
2023-01-07T07:57:03.815Z,12.87
2023-01-07T07:59:30.883Z,13.50
2023-01-07T08:01:57.857Z,13.20
2023-01-07T08:04:25.171Z,14.30
2023-01-07T08:06:52.044Z,12.30
2023-01-07T08:09:20.985Z,12.47
2023-01-07T08:11:47.927Z,11.47
2023-01-07T08:14:14.813Z,11.93
2023-01-07T08:16:41.705Z,10.20
2023-01-07T08:19:08.684Z,11.93
2023-01-07T08:21:35.617Z,10.37
2023-01-07T08:24:02.933Z,10.40
2023-01-07T08:26:31.244Z,11.23
2023-01-07T08:28:58.166Z,11.33
2023-01-07T08:31:25.196Z,10.80
2023-01-07T08:33:52.114Z,9.43
2023-01-07T08:36:23.037Z,8.80
2023-01-07T08:38:52.157Z,9.40
2023-01-07T08:41:19.536Z,10.20
2023-01-07T08:43:48.961Z,9.37
2023-01-07T08:46:16.582Z,7.23
2023-01-07T08:48:43.900Z,7.80
2023-01-07T08:51:12.033Z,7.33
2023-01-07T08:53:39.991Z,7.13
2023-01-07T08:56:07.586Z,7.27
2023-01-07T08:58:34.757Z,6.47
2023-01-07T09:01:06.283Z,6.63
2023-01-07T09:03:34.269Z,5.80
2023-01-07T09:06:03.731Z,7.60
2023-01-07T09:08:31.922Z,4.97
2023-01-07T09:10:59.050Z,5.77
2023-01-07T09:13:25.989Z,4.70
2023-01-07T09:15:53.123Z,3.90
2023-01-07T09:18:21.549Z,4.40
2023-01-07T09:20:48.469Z,5.10
2023-01-07T09:23:15.434Z,3.00
2023-01-07T09:25:42.416Z,3.23
2023-01-07T09:28:09.374Z,3.10
2023-01-07T09:30:37.340Z,4.23
2023-01-07T09:33:05.026Z,2.80
2023-01-07T09:35:33.591Z,2.77
2023-01-07T09:38:00.568Z,2.83
2023-01-07T09:40:32.236Z,3.10
2023-01-07T09:43:08.802Z,3.03
2023-01-07T09:45:42.552Z,1.80
2023-01-07T09:48:21.987Z,4.07
2023-01-07T09:50:58.310Z,2.93
2023-01-07T09:53:34.797Z,3.70
2023-01-07T09:56:12.480Z,2.90
2023-01-07T09:58:44.729Z,2.10
2023-01-07T10:01:26.974Z,2.03
2023-01-07T10:04:16.914Z,1.90
2023-01-07T10:06:59.504Z,2.80
2023-01-07T10:09:42.323Z,1.90
2023-01-07T10:12:22.099Z,2.00
2023-01-07T10:15:10.451Z,2.60
2023-01-07T10:17:59.653Z,2.30
2023-01-07T10:20:37.471Z,1.93
2023-01-07T10:23:12.473Z,3.77
2023-01-07T10:25:45.585Z,2.20
2023-01-07T10:28:21.464Z,3.20
2023-01-07T10:30:53.299Z,1.70
2023-01-07T10:33:25.233Z,2.00
2023-01-07T10:36:05.412Z,1.70
2023-01-07T10:38:41.799Z,2.13
2023-01-07T10:41:16.568Z,2.13
2023-01-07T10:44:07.326Z,2.30
2023-01-07T10:46:53.986Z,1.60
2023-01-07T10:49:44.752Z,2.23
2023-01-07T10:52:31.733Z,1.60
2023-01-07T10:55:22.769Z,2.13
2023-01-07T10:57:50.003Z,3.03
2023-01-07T11:00:19.112Z,2.23
2023-01-07T11:02:54.403Z,3.40
2023-01-07T11:05:24.877Z,1.87
2023-01-07T11:07:59.564Z,1.70
2023-01-07T11:10:36.311Z,2.07
2023-01-07T11:13:13.928Z,1.80
2023-01-07T11:15:45.014Z,1.80
2023-01-07T11:18:21.411Z,2.10
2023-01-07T11:20:51.252Z,3.17
2023-01-07T11:23:29.229Z,1.60
2023-01-07T11:26:17.954Z,1.70
2023-01-07T11:28:53.282Z,1.70
2023-01-07T11:31:22.752Z,1.50
2023-01-07T11:34:04.149Z,1.70
2023-01-07T11:36:42.201Z,1.47
2023-01-07T11:39:12.262Z,1.50
2023-01-07T11:41:53.622Z,2.20
2023-01-07T11:44:20.812Z,1.80
2023-01-07T11:46:48.328Z,1.50
2023-01-07T11:49:26.534Z,1.67
2023-01-07T11:51:54.161Z,2.70
2023-01-07T11:54:24.721Z,2.13
2023-01-07T11:56:55.236Z,2.93
2023-01-07T11:59:30.373Z,1.73
2023-01-07T12:01:59.670Z,1.70
2023-01-07T12:04:29.959Z,1.90
2023-01-07T12:07:01.056Z,1.70
2023-01-07T12:09:38.207Z,4.17
2023-01-07T12:12:31.471Z,2.40
2023-01-07T12:15:02.250Z,2.23
2023-01-07T12:17:32.904Z,2.30
2023-01-07T12:20:36.953Z,2.40
2023-01-07T12:23:20.921Z,1.40
2023-01-07T12:26:01.799Z,1.77
2023-01-07T12:28:53.659Z,2.40
2023-01-07T12:31:39.016Z,1.63
2023-01-07T12:34:19.653Z,2.07
2023-01-07T12:37:00.581Z,2.27
2023-01-07T12:39:35.249Z,1.40
2023-01-07T12:42:10.137Z,1.70
2023-01-07T12:44:47.461Z,1.57
2023-01-07T12:47:32.505Z,3.03
2023-01-07T12:50:09.590Z,1.97
2023-01-07T12:52:45.926Z,3.10
2023-01-07T12:55:20.853Z,1.40
2023-01-07T12:58:03.337Z,1.40
2023-01-07T13:00:42.275Z,1.63
2023-01-07T13:03:29.216Z,2.17
2023-01-07T13:06:04.591Z,1.73
2023-01-07T13:08:43.295Z,2.37
2023-01-07T13:11:41.608Z,2.67
2023-01-07T13:14:22.356Z,2.23
2023-01-07T13:16:51.236Z,2.57
2023-01-07T13:19:18.234Z,2.90
2023-01-07T13:21:48.208Z,1.93
2023-01-07T13:24:55.883Z,1.97
2023-01-07T13:27:34.537Z,3.67
2023-01-07T13:30:19.928Z,1.23
2023-01-07T13:33:11.782Z,1.57
2023-01-07T13:36:05.139Z,0.97
2023-01-07T13:39:01.438Z,1.40
2023-01-07T13:41:49.504Z,2.37
2023-01-07T13:45:06.100Z,1.33
2023-01-07T13:47:44.778Z,1.70
2023-01-07T13:50:23.640Z,1.30
2023-01-07T13:53:03.374Z,1.30
2023-01-07T13:55:40.498Z,1.80
2023-01-07T13:58:44.781Z,1.60
2023-01-07T14:01:14.212Z,1.30
2023-01-07T14:03:49.429Z,1.37
2023-01-07T14:06:40.019Z,1.00
2023-01-07T14:09:27.364Z,2.40
2023-01-07T14:12:52.919Z,1.53
2023-01-07T14:15:53.791Z,1.27
2023-01-07T14:18:51.929Z,2.47
2023-01-07T14:21:44.496Z,3.63
2023-01-07T14:24:55.391Z,1.53
2023-01-07T14:28:10.634Z,2.33
2023-01-07T14:30:46.441Z,1.30
2023-01-07T14:33:21.477Z,1.30
2023-01-07T14:35:58.590Z,2.50
2023-01-07T14:39:03.661Z,2.33
2023-01-07T14:41:30.629Z,1.93
2023-01-07T14:44:18.998Z,2.70
2023-01-07T14:46:51.579Z,1.60
2023-01-07T14:49:56.946Z,1.70
2023-01-07T14:53:00.019Z,2.20
2023-01-07T14:56:01.906Z,2.40
2023-01-07T14:58:55.602Z,2.13
2023-01-07T15:01:51.822Z,1.77
2023-01-07T15:05:00.855Z,2.43
2023-01-07T15:07:33.694Z,2.23
2023-01-07T15:10:24.052Z,1.80
2023-01-07T15:13:16.827Z,3.00
2023-01-07T15:16:03.873Z,1.50
2023-01-07T15:18:42.434Z,2.40
2023-01-07T15:21:22.946Z,2.07
2023-01-07T15:24:00.912Z,2.00
2023-01-07T15:26:42.070Z,3.90
2023-01-07T15:29:22.982Z,1.60
2023-01-07T15:32:03.379Z,2.63
2023-01-07T15:34:33.036Z,2.00
2023-01-07T15:37:05.154Z,1.67
2023-01-07T15:39:40.665Z,2.70
2023-01-07T15:42:16.449Z,2.00
2023-01-07T15:44:49.630Z,2.57
2023-01-07T15:47:37.946Z,2.73
2023-01-07T15:50:31.294Z,1.67
2023-01-07T15:53:01.423Z,1.80
2023-01-07T15:55:36.890Z,2.57
2023-01-07T15:58:10.480Z,1.93
2023-01-07T16:00:39.029Z,3.23
2023-01-07T16:03:06.862Z,5.67
2023-01-07T16:05:37.701Z,3.50
2023-01-07T16:08:05.292Z,1.87
2023-01-07T16:10:34.989Z,2.60
2023-01-07T16:13:04.399Z,2.80
2023-01-07T16:15:33.613Z,2.53
2023-01-07T16:18:15.536Z,2.20
2023-01-07T16:20:54.000Z,2.33
2023-01-07T16:23:25.170Z,2.10
2023-01-07T16:26:00.651Z,2.03
2023-01-07T16:28:32.441Z,1.87
2023-01-07T16:31:00.237Z,3.37
2023-01-07T16:33:32.263Z,2.33
2023-01-07T16:36:05.252Z,2.07
2023-01-07T16:38:36.404Z,2.20
2023-01-07T16:41:04.129Z,2.40
2023-01-07T16:43:44.554Z,1.93
2023-01-07T16:46:26.286Z,1.87
2023-01-07T16:49:26.569Z,2.13
2023-01-07T16:52:05.197Z,2.60
2023-01-07T16:54:37.063Z,2.17
2023-01-07T16:57:07.000Z,2.70
2023-01-07T16:59:38.104Z,2.50
2023-01-07T17:02:26.414Z,2.43
2023-01-07T17:04:56.581Z,2.23
2023-01-07T17:07:27.319Z,2.90
2023-01-07T17:09:57.755Z,2.70
2023-01-07T17:12:29.736Z,3.83
2023-01-07T17:14:56.940Z,2.50
2023-01-07T17:17:30.281Z,2.37
2023-01-07T17:20:28.635Z,2.27
2023-01-07T17:22:57.056Z,2.73
2023-01-07T17:25:28.269Z,2.63
2023-01-07T17:28:00.833Z,2.77
2023-01-07T17:30:34.128Z,3.03
2023-01-07T17:33:02.402Z,2.33
2023-01-07T17:35:30.625Z,2.33
2023-01-07T17:37:58.620Z,2.00
2023-01-07T17:40:25.778Z,2.60
2023-01-07T17:43:10.999Z,2.10
2023-01-07T17:45:37.949Z,2.47
2023-01-07T17:48:13.505Z,2.60
2023-01-07T17:50:43.005Z,2.33
2023-01-07T17:53:23.329Z,2.20
2023-01-07T17:55:50.365Z,4.13
2023-01-07T17:58:26.965Z,2.27
2023-01-07T18:00:56.562Z,2.73
2023-01-07T18:03:24.685Z,2.70
2023-01-07T18:05:53.188Z,2.97
2023-01-07T18:08:20.148Z,2.57
2023-01-07T18:11:07.245Z,2.40
2023-01-07T18:13:34.141Z,2.50
2023-01-07T18:16:01.383Z,1.90
2023-01-07T18:18:28.745Z,2.47
2023-01-07T18:20:58.107Z,1.83
2023-01-07T18:23:25.747Z,2.97
2023-01-07T18:25:52.812Z,2.20
2023-01-07T18:28:19.792Z,3.63
2023-01-07T18:30:47.137Z,5.57
2023-01-07T18:33:14.194Z,3.20
2023-01-07T18:35:41.072Z,2.80
2023-01-07T18:38:15.218Z,2.33
2023-01-07T18:40:43.189Z,5.53
2023-01-07T18:43:13.684Z,2.93
2023-01-07T18:45:41.020Z,2.90
2023-01-07T18:48:09.179Z,2.40
2023-01-07T18:50:36.561Z,3.07
2023-01-07T18:53:03.426Z,2.20
2023-01-07T18:55:31.690Z,2.20
2023-01-07T18:57:58.676Z,2.53
2023-01-07T19:00:25.804Z,3.60
2023-01-07T19:02:53.035Z,2.77
2023-01-07T19:05:20.116Z,2.60
2023-01-07T19:07:47.013Z,3.37
2023-01-07T19:10:13.904Z,3.10
2023-01-07T19:12:42.182Z,3.27
2023-01-07T19:15:10.527Z,3.60
2023-01-07T19:17:37.679Z,2.83
2023-01-07T19:20:06.267Z,3.50
2023-01-07T19:22:33.142Z,2.60
2023-01-07T19:25:00.018Z,2.53
2023-01-07T19:27:27.001Z,3.33
2023-01-07T19:29:55.244Z,2.50
2023-01-07T19:32:22.208Z,2.93
2023-01-07T19:34:52.186Z,3.40
2023-01-07T19:37:19.232Z,3.07
2023-01-07T19:39:46.135Z,3.90
2023-01-07T19:42:13.037Z,3.60
2023-01-07T19:44:41.494Z,3.03
2023-01-07T19:47:13.820Z,4.20
2023-01-07T19:49:41.754Z,4.07
2023-01-07T19:52:08.645Z,4.53
2023-01-07T19:54:35.805Z,3.00
2023-01-07T19:57:02.809Z,3.47
2023-01-07T19:59:31.137Z,3.93
2023-01-07T20:01:58.112Z,3.27
2023-01-07T20:04:27.242Z,3.30
2023-01-07T20:06:54.598Z,4.60
2023-01-07T20:09:21.914Z,3.53
2023-01-07T20:11:48.931Z,3.57
2023-01-07T20:14:15.984Z,3.53
2023-01-07T20:16:43.016Z,3.43
2023-01-07T20:19:12.239Z,3.80
2023-01-07T20:21:40.507Z,3.37
2023-01-07T20:24:08.725Z,3.27
2023-01-07T20:26:38.053Z,4.47
2023-01-07T20:29:05.231Z,2.97
2023-01-07T20:31:32.978Z,3.47
2023-01-07T20:34:00.262Z,3.47
2023-01-07T20:36:30.875Z,2.93
2023-01-07T20:39:05.181Z,3.40
2023-01-07T20:41:34.578Z,4.67
2023-01-07T20:44:04.105Z,3.33
2023-01-07T20:46:34.555Z,3.90
2023-01-07T20:49:01.819Z,4.23
2023-01-07T20:51:28.894Z,4.37
2023-01-07T20:53:55.820Z,4.47
2023-01-07T20:56:24.449Z,3.70
2023-01-07T20:58:51.753Z,3.40
